Cascade, ID (83611)

1:43 AM MST on November 28, 2014 (GMT -0700)
ITD Smiths Ferry ID US | Change Station
CLOSE
Current Station
Personal Weather Station
Location: Cascade, ID
Elevation: 4603 ft
Nearby Weather Stations

Elev 4603 ft 44.30 °N, 116.09 °W | Updated 43 minutes ago

Overcast
Overcast
34 °F
Feels Like 34 °F
N
0
Wind Variable Wind from NNW
Gusts 0.0 mph

Today
High -- | Low -- °F
--% Chance of Precip.
Yesterday
High -- | Low -- °F
Precip. -- in
7:56 AM 5:07 PM
Waxing Crescent, 38% visible
Pressure 29.96 in
Visibility 4.0 miles
Clouds Mostly Cloudy 5500 ft
Mostly Cloudy 7000 ft
Overcast 8500 ft
Windchill 34 °F
Dew Point 34 °F
Humidity 100%
Rainfall -999.00 in
Snow Depth Not available.
UV 0 out of 12
Pollen 1.10 out of 12
Air Quality Not available.
Flu Activity Not available.
METAR KMYL 280751Z AUTO 00000KT 4SM BR BKN055 BKN070 OVC085 02/02 A2996 RMK AO2 RAE07 SLP144 P0000 T00220017

More Conditions Fewer Conditions

Pressure 29.96 in
Visibility 4.0 miles
Clouds Mostly Cloudy 5500 ft
Mostly Cloudy 7000 ft
Overcast 8500 ft
Windchill 34 °F
Dew Point 34 °F
Humidity 100%
Rainfall -999.00 in
Snow Depth Not available.
UV 0 out of 12
Pollen 1.10 out of 12
Air Quality Not available.
Flu Activity Not available.
METAR KMYL 280751Z AUTO 00000KT 4SM BR BKN055 BKN070 OVC085 02/02 A2996 RMK AO2 RAE07 SLP144 P0000 T00220017

More Conditions Fewer Conditions

10-Day Weather Forecast

Almanac

Astronomy

Nov. 28, 2014 Rise Set
Actual Time
Civil Twilight
Nautical Twilight
Astronomical Twilight
Moon
Length of Visible Light
Length of Day
Tomorrow will be .
, % of the Moon is Illuminated

Today's Extremes

State Highs State Lows

Community

WunderPhotos

Upload Photos

1,774,190 photos uploaded!

WunderBlogs® & News

Nearby

Air Quality

  Air Quality AQ Index Pollutant
Not available.

Snow Depth

Station Depth Elevation

Earthquake Activity

City Distance Mag. Time & Date
Minimum magnitude displayed is 2.5.

Coastal Water Temperatures

Place Temperature

Nearby Weather Stations